sensor_id;sensor_type;location;lat;lon;timestamp;P1;durP1;ratioP1;P2;durP2;ratioP2
7104;SDS011;3594;42.152;24.714;2022-12-07T00:01:08;13.03;;;5.20;;
7104;SDS011;3594;42.152;24.714;2022-12-07T00:03:35;9.47;;;5.63;;
7104;SDS011;3594;42.152;24.714;2022-12-07T00:06:02;13.77;;;6.97;;
7104;SDS011;3594;42.152;24.714;2022-12-07T00:08:29;12.13;;;6.97;;
7104;SDS011;3594;42.152;24.714;2022-12-07T00:10:59;11.53;;;6.20;;
7104;SDS011;3594;42.152;24.714;2022-12-07T00:13:29;15.40;;;6.40;;
7104;SDS011;3594;42.152;24.714;2022-12-07T00:15:55;10.33;;;6.17;;
7104;SDS011;3594;42.152;24.714;2022-12-07T00:18:20;12.27;;;5.63;;
7104;SDS011;3594;42.152;24.714;2022-12-07T00:20:46;9.63;;;5.57;;
7104;SDS011;3594;42.152;24.714;2022-12-07T00:23:11;14.50;;;6.17;;
7104;SDS011;3594;42.152;24.714;2022-12-07T00:25:37;12.43;;;5.63;;
7104;SDS011;3594;42.152;24.714;2022-12-07T00:28:02;8.23;;;5.00;;
7104;SDS011;3594;42.152;24.714;2022-12-07T00:30:28;7.63;;;4.87;;
7104;SDS011;3594;42.152;24.714;2022-12-07T00:32:53;15.70;;;6.93;;
7104;SDS011;3594;42.152;24.714;2022-12-07T00:35:18;9.07;;;6.37;;
7104;SDS011;3594;42.152;24.714;2022-12-07T00:37:44;9.00;;;5.57;;
7104;SDS011;3594;42.152;24.714;2022-12-07T00:40:09;10.87;;;5.57;;
7104;SDS011;3594;42.152;24.714;2022-12-07T00:42:35;12.07;;;6.10;;
7104;SDS011;3594;42.152;24.714;2022-12-07T00:45:01;8.13;;;5.53;;
7104;SDS011;3594;42.152;24.714;2022-12-07T00:47:26;13.50;;;6.60;;
7104;SDS011;3594;42.152;24.714;2022-12-07T00:49:51;10.83;;;6.13;;
7104;SDS011;3594;42.152;24.714;2022-12-07T00:52:17;7.03;;;5.60;;
7104;SDS011;3594;42.152;24.714;2022-12-07T00:54:42;9.83;;;6.00;;
7104;SDS011;3594;42.152;24.714;2022-12-07T00:57:08;9.33;;;5.57;;
7104;SDS011;3594;42.152;24.714;2022-12-07T00:59:33;10.83;;;5.90;;
7104;SDS011;3594;42.152;24.714;2022-12-07T01:01:58;10.67;;;5.30;;
7104;SDS011;3594;42.152;24.714;2022-12-07T01:04:24;9.63;;;5.70;;
7104;SDS011;3594;42.152;24.714;2022-12-07T01:06:49;14.87;;;5.50;;
7104;SDS011;3594;42.152;24.714;2022-12-07T01:09:15;11.57;;;6.33;;
7104;SDS011;3594;42.152;24.714;2022-12-07T01:11:40;11.00;;;5.73;;
7104;SDS011;3594;42.152;24.714;2022-12-07T01:14:05;12.03;;;5.80;;
7104;SDS011;3594;42.152;24.714;2022-12-07T01:16:31;17.67;;;6.60;;
7104;SDS011;3594;42.152;24.714;2022-12-07T01:18:58;11.13;;;6.30;;
7104;SDS011;3594;42.152;24.714;2022-12-07T01:21:25;17.57;;;6.47;;
7104;SDS011;3594;42.152;24.714;2022-12-07T01:23:59;11.40;;;6.37;;
7104;SDS011;3594;42.152;24.714;2022-12-07T01:26:25;16.33;;;7.40;;
7104;SDS011;3594;42.152;24.714;2022-12-07T01:28:51;8.07;;;5.23;;
7104;SDS011;3594;42.152;24.714;2022-12-07T01:31:23;12.60;;;5.67;;
7104;SDS011;3594;42.152;24.714;2022-12-07T01:33:54;5.63;;;3.93;;
7104;SDS011;3594;42.152;24.714;2022-12-07T01:36:28;9.00;;;4.53;;
7104;SDS011;3594;42.152;24.714;2022-12-07T01:38:59;8.50;;;4.83;;
7104;SDS011;3594;42.152;24.714;2022-12-07T01:41:27;10.07;;;5.17;;
7104;SDS011;3594;42.152;24.714;2022-12-07T01:46:50;9.33;;;4.63;;
7104;SDS011;3594;42.152;24.714;2022-12-07T01:49:58;7.30;;;4.07;;
7104;SDS011;3594;42.152;24.714;2022-12-07T01:54:42;6.00;;;3.83;;
7104;SDS011;3594;42.152;24.714;2022-12-07T01:57:09;6.30;;;5.13;;
7104;SDS011;3594;42.152;24.714;2022-12-07T01:59:36;7.13;;;4.70;;
7104;SDS011;3594;42.152;24.714;2022-12-07T02:02:04;7.57;;;4.00;;
7104;SDS011;3594;42.152;24.714;2022-12-07T02:04:36;6.20;;;4.03;;
7104;SDS011;3594;42.152;24.714;2022-12-07T02:07:01;6.90;;;4.50;;
7104;SDS011;3594;42.152;24.714;2022-12-07T02:09:28;10.37;;;5.07;;
7104;SDS011;3594;42.152;24.714;2022-12-07T02:11:54;5.70;;;3.50;;
7104;SDS011;3594;42.152;24.714;2022-12-07T02:14:20;8.40;;;4.23;;
7104;SDS011;3594;42.152;24.714;2022-12-07T02:25:14;7.33;;;4.47;;
7104;SDS011;3594;42.152;24.714;2022-12-07T02:28:09;8.23;;;4.13;;
7104;SDS011;3594;42.152;24.714;2022-12-07T02:30:45;9.50;;;4.03;;
7104;SDS011;3594;42.152;24.714;2022-12-07T02:33:14;7.03;;;4.23;;
7104;SDS011;3594;42.152;24.714;2022-12-07T02:35:46;7.70;;;5.10;;
7104;SDS011;3594;42.152;24.714;2022-12-07T02:41:04;11.10;;;4.63;;
7104;SDS011;3594;42.152;24.714;2022-12-07T02:43:39;5.10;;;3.87;;
7104;SDS011;3594;42.152;24.714;2022-12-07T02:46:09;6.40;;;4.43;;
7104;SDS011;3594;42.152;24.714;2022-12-07T02:48:39;6.10;;;4.40;;
7104;SDS011;3594;42.152;24.714;2022-12-07T02:51:06;5.13;;;3.87;;
7104;SDS011;3594;42.152;24.714;2022-12-07T02:53:36;10.93;;;5.00;;
7104;SDS011;3594;42.152;24.714;2022-12-07T03:02:20;9.60;;;3.80;;
7104;SDS011;3594;42.152;24.714;2022-12-07T03:10:33;7.33;;;4.43;;
7104;SDS011;3594;42.152;24.714;2022-12-07T03:13:11;6.73;;;4.33;;
7104;SDS011;3594;42.152;24.714;2022-12-07T03:16:08;5.33;;;3.73;;
7104;SDS011;3594;42.152;24.714;2022-12-07T03:18:37;4.33;;;3.73;;
7104;SDS011;3594;42.152;24.714;2022-12-07T03:21:14;6.97;;;4.20;;
7104;SDS011;3594;42.152;24.714;2022-12-07T03:23:44;10.93;;;4.00;;
7104;SDS011;3594;42.152;24.714;2022-12-07T03:26:13;9.67;;;4.50;;
7104;SDS011;3594;42.152;24.714;2022-12-07T03:28:42;6.43;;;3.43;;
7104;SDS011;3594;42.152;24.714;2022-12-07T03:33:58;15.53;;;4.50;;
7104;SDS011;3594;42.152;24.714;2022-12-07T03:42:27;4.63;;;3.57;;
7104;SDS011;3594;42.152;24.714;2022-12-07T03:44:52;11.70;;;4.93;;
7104;SDS011;3594;42.152;24.714;2022-12-07T03:47:26;7.20;;;4.77;;
7104;SDS011;3594;42.152;24.714;2022-12-07T03:49:59;11.23;;;4.93;;
7104;SDS011;3594;42.152;24.714;2022-12-07T03:58:00;10.70;;;4.50;;
7104;SDS011;3594;42.152;24.714;2022-12-07T04:00:29;13.03;;;4.87;;
7104;SDS011;3594;42.152;24.714;2022-12-07T04:02:55;4.57;;;3.50;;
7104;SDS011;3594;42.152;24.714;2022-12-07T04:05:21;5.37;;;3.97;;
7104;SDS011;3594;42.152;24.714;2022-12-07T04:07:47;9.53;;;4.20;;
7104;SDS011;3594;42.152;24.714;2022-12-07T04:10:12;6.63;;;4.63;;
7104;SDS011;3594;42.152;24.714;2022-12-07T04:12:39;7.23;;;4.50;;
7104;SDS011;3594;42.152;24.714;2022-12-07T04:15:04;11.37;;;4.77;;
7104;SDS011;3594;42.152;24.714;2022-12-07T04:17:30;6.83;;;4.60;;
7104;SDS011;3594;42.152;24.714;2022-12-07T04:19:56;9.40;;;4.27;;
7104;SDS011;3594;42.152;24.714;2022-12-07T04:22:21;7.03;;;4.30;;
7104;SDS011;3594;42.152;24.714;2022-12-07T04:24:47;6.77;;;3.87;;
7104;SDS011;3594;42.152;24.714;2022-12-07T04:27:12;6.53;;;3.90;;
7104;SDS011;3594;42.152;24.714;2022-12-07T04:29:38;9.33;;;5.10;;
7104;SDS011;3594;42.152;24.714;2022-12-07T04:32:03;5.80;;;4.20;;
7104;SDS011;3594;42.152;24.714;2022-12-07T04:34:29;5.37;;;3.93;;
7104;SDS011;3594;42.152;24.714;2022-12-07T04:36:54;10.67;;;4.27;;
7104;SDS011;3594;42.152;24.714;2022-12-07T04:39:21;6.77;;;4.10;;
7104;SDS011;3594;42.152;24.714;2022-12-07T04:41:49;5.37;;;3.23;;
7104;SDS011;3594;42.152;24.714;2022-12-07T04:44:15;8.37;;;4.13;;
7104;SDS011;3594;42.152;24.714;2022-12-07T04:46:42;6.07;;;4.27;;
7104;SDS011;3594;42.152;24.714;2022-12-07T04:49:08;7.57;;;5.47;;
7104;SDS011;3594;42.152;24.714;2022-12-07T04:51:33;5.73;;;3.70;;
7104;SDS011;3594;42.152;24.714;2022-12-07T04:53:59;5.23;;;4.00;;
7104;SDS011;3594;42.152;24.714;2022-12-07T04:56:24;11.60;;;4.17;;
7104;SDS011;3594;42.152;24.714;2022-12-07T04:58:50;6.03;;;4.43;;
7104;SDS011;3594;42.152;24.714;2022-12-07T05:01:17;7.53;;;4.23;;
7104;SDS011;3594;42.152;24.714;2022-12-07T05:03:43;9.70;;;4.03;;
7104;SDS011;3594;42.152;24.714;2022-12-07T05:06:09;7.40;;;3.73;;
7104;SDS011;3594;42.152;24.714;2022-12-07T05:08:35;7.83;;;4.60;;
7104;SDS011;3594;42.152;24.714;2022-12-07T05:11:01;7.73;;;4.77;;
7104;SDS011;3594;42.152;24.714;2022-12-07T05:13:28;7.60;;;4.90;;
7104;SDS011;3594;42.152;24.714;2022-12-07T05:15:53;6.03;;;4.43;;
7104;SDS011;3594;42.152;24.714;2022-12-07T05:18:19;8.90;;;4.03;;
7104;SDS011;3594;42.152;24.714;2022-12-07T05:20:44;3.70;;;3.27;;
7104;SDS011;3594;42.152;24.714;2022-12-07T05:23:10;8.57;;;4.53;;
7104;SDS011;3594;42.152;24.714;2022-12-07T05:25:36;6.57;;;4.00;;
7104;SDS011;3594;42.152;24.714;2022-12-07T05:28:01;8.37;;;4.63;;
7104;SDS011;3594;42.152;24.714;2022-12-07T05:30:27;10.73;;;4.40;;
7104;SDS011;3594;42.152;24.714;2022-12-07T05:32:53;9.80;;;4.20;;
7104;SDS011;3594;42.152;24.714;2022-12-07T05:35:18;6.03;;;4.10;;
7104;SDS011;3594;42.152;24.714;2022-12-07T05:37:44;8.07;;;5.23;;
7104;SDS011;3594;42.152;24.714;2022-12-07T05:40:09;7.07;;;4.73;;
7104;SDS011;3594;42.152;24.714;2022-12-07T05:42:35;9.97;;;5.83;;
7104;SDS011;3594;42.152;24.714;2022-12-07T05:45:01;9.97;;;5.53;;
7104;SDS011;3594;42.152;24.714;2022-12-07T05:47:27;8.53;;;4.53;;
7104;SDS011;3594;42.152;24.714;2022-12-07T05:49:52;14.23;;;4.90;;
7104;SDS011;3594;42.152;24.714;2022-12-07T05:52:18;8.63;;;4.40;;
7104;SDS011;3594;42.152;24.714;2022-12-07T05:54:43;8.73;;;4.67;;
7104;SDS011;3594;42.152;24.714;2022-12-07T05:57:08;12.57;;;4.77;;
7104;SDS011;3594;42.152;24.714;2022-12-07T05:59:34;7.83;;;4.23;;
7104;SDS011;3594;42.152;24.714;2022-12-07T06:02:00;7.87;;;4.80;;
7104;SDS011;3594;42.152;24.714;2022-12-07T06:04:31;8.93;;;5.00;;
7104;SDS011;3594;42.152;24.714;2022-12-07T06:06:59;6.90;;;4.13;;
7104;SDS011;3594;42.152;24.714;2022-12-07T06:09:25;6.87;;;4.37;;
7104;SDS011;3594;42.152;24.714;2022-12-07T06:11:52;7.93;;;4.80;;
7104;SDS011;3594;42.152;24.714;2022-12-07T06:14:37;6.80;;;4.30;;
7104;SDS011;3594;42.152;24.714;2022-12-07T06:17:02;9.67;;;5.00;;
7104;SDS011;3594;42.152;24.714;2022-12-07T06:19:28;9.23;;;4.73;;
7104;SDS011;3594;42.152;24.714;2022-12-07T06:21:56;5.93;;;3.20;;
7104;SDS011;3594;42.152;24.714;2022-12-07T06:24:22;10.93;;;4.80;;
7104;SDS011;3594;42.152;24.714;2022-12-07T06:26:48;5.97;;;4.27;;
7104;SDS011;3594;42.152;24.714;2022-12-07T06:29:14;6.73;;;4.10;;
7104;SDS011;3594;42.152;24.714;2022-12-07T06:31:40;14.47;;;3.33;;
7104;SDS011;3594;42.152;24.714;2022-12-07T06:34:06;7.17;;;4.57;;
7104;SDS011;3594;42.152;24.714;2022-12-07T06:36:34;7.90;;;4.30;;
7104;SDS011;3594;42.152;24.714;2022-12-07T06:39:00;9.63;;;4.87;;
7104;SDS011;3594;42.152;24.714;2022-12-07T06:41:26;5.20;;;3.80;;
7104;SDS011;3594;42.152;24.714;2022-12-07T06:43:51;8.47;;;4.07;;
7104;SDS011;3594;42.152;24.714;2022-12-07T06:46:17;10.77;;;4.33;;
7104;SDS011;3594;42.152;24.714;2022-12-07T06:48:43;5.60;;;3.40;;
7104;SDS011;3594;42.152;24.714;2022-12-07T06:51:08;8.60;;;4.07;;
7104;SDS011;3594;42.152;24.714;2022-12-07T06:53:34;6.80;;;3.97;;
7104;SDS011;3594;42.152;24.714;2022-12-07T06:56:00;13.03;;;4.53;;
7104;SDS011;3594;42.152;24.714;2022-12-07T06:58:26;19.30;;;5.33;;
7104;SDS011;3594;42.152;24.714;2022-12-07T07:00:51;9.80;;;5.73;;
7104;SDS011;3594;42.152;24.714;2022-12-07T07:03:17;8.53;;;5.10;;
7104;SDS011;3594;42.152;24.714;2022-12-07T07:05:43;19.07;;;5.07;;
7104;SDS011;3594;42.152;24.714;2022-12-07T07:08:08;11.57;;;5.23;;
7104;SDS011;3594;42.152;24.714;2022-12-07T07:10:34;8.53;;;4.97;;
7104;SDS011;3594;42.152;24.714;2022-12-07T07:13:00;10.27;;;5.10;;
7104;SDS011;3594;42.152;24.714;2022-12-07T07:15:25;11.40;;;5.33;;
7104;SDS011;3594;42.152;24.714;2022-12-07T07:17:51;13.93;;;6.13;;
7104;SDS011;3594;42.152;24.714;2022-12-07T07:20:16;13.23;;;5.83;;
7104;SDS011;3594;42.152;24.714;2022-12-07T07:22:42;14.87;;;5.57;;
7104;SDS011;3594;42.152;24.714;2022-12-07T07:25:07;11.23;;;6.20;;
7104;SDS011;3594;42.152;24.714;2022-12-07T07:27:33;13.83;;;6.97;;
7104;SDS011;3594;42.152;24.714;2022-12-07T07:29:58;15.27;;;6.80;;
7104;SDS011;3594;42.152;24.714;2022-12-07T07:32:24;11.67;;;6.20;;
7104;SDS011;3594;42.152;24.714;2022-12-07T07:34:49;10.00;;;5.40;;
7104;SDS011;3594;42.152;24.714;2022-12-07T07:37:15;14.80;;;7.83;;
7104;SDS011;3594;42.152;24.714;2022-12-07T07:39:40;17.90;;;8.70;;
7104;SDS011;3594;42.152;24.714;2022-12-07T07:42:05;16.40;;;8.07;;
7104;SDS011;3594;42.152;24.714;2022-12-07T07:44:32;20.60;;;8.17;;
7104;SDS011;3594;42.152;24.714;2022-12-07T07:47:01;16.33;;;8.03;;
7104;SDS011;3594;42.152;24.714;2022-12-07T07:49:26;20.27;;;7.87;;
7104;SDS011;3594;42.152;24.714;2022-12-07T07:51:52;14.10;;;6.77;;
7104;SDS011;3594;42.152;24.714;2022-12-07T07:54:17;13.63;;;7.27;;
7104;SDS011;3594;42.152;24.714;2022-12-07T07:56:42;10.93;;;6.40;;
7104;SDS011;3594;42.152;24.714;2022-12-07T07:59:08;18.73;;;6.63;;
7104;SDS011;3594;42.152;24.714;2022-12-07T08:01:33;15.27;;;7.43;;
7104;SDS011;3594;42.152;24.714;2022-12-07T08:03:59;21.80;;;10.43;;
7104;SDS011;3594;42.152;24.714;2022-12-07T08:06:24;27.07;;;14.63;;
7104;SDS011;3594;42.152;24.714;2022-12-07T08:08:50;33.20;;;18.10;;
7104;SDS011;3594;42.152;24.714;2022-12-07T08:11:15;27.67;;;16.03;;
7104;SDS011;3594;42.152;24.714;2022-12-07T08:13:41;32.37;;;17.67;;
7104;SDS011;3594;42.152;24.714;2022-12-07T08:16:07;30.77;;;15.33;;
7104;SDS011;3594;42.152;24.714;2022-12-07T08:18:36;28.87;;;15.23;;
7104;SDS011;3594;42.152;24.714;2022-12-07T08:21:02;31.98;;;15.60;;
7104;SDS011;3594;42.152;24.714;2022-12-07T08:23:31;25.00;;;13.83;;
7104;SDS011;3594;42.152;24.714;2022-12-07T08:26:00;25.77;;;14.33;;
7104;SDS011;3594;42.152;24.714;2022-12-07T08:28:29;24.60;;;11.57;;
7104;SDS011;3594;42.152;24.714;2022-12-07T08:30:59;23.30;;;11.90;;
7104;SDS011;3594;42.152;24.714;2022-12-07T08:33:26;17.60;;;9.30;;
7104;SDS011;3594;42.152;24.714;2022-12-07T08:35:52;20.27;;;10.40;;
7104;SDS011;3594;42.152;24.714;2022-12-07T08:38:17;17.63;;;9.82;;
7104;SDS011;3594;42.152;24.714;2022-12-07T08:40:42;20.25;;;9.38;;
7104;SDS011;3594;42.152;24.714;2022-12-07T08:43:08;21.35;;;9.68;;
7104;SDS011;3594;42.152;24.714;2022-12-07T08:45:33;19.77;;;10.20;;
7104;SDS011;3594;42.152;24.714;2022-12-07T08:48:04;10.98;;;6.72;;
7104;SDS011;3594;42.152;24.714;2022-12-07T08:50:33;15.10;;;7.82;;
7104;SDS011;3594;42.152;24.714;2022-12-07T08:53:01;14.38;;;6.43;;
7104;SDS011;3594;42.152;24.714;2022-12-07T08:55:29;17.52;;;7.22;;
7104;SDS011;3594;42.152;24.714;2022-12-07T08:57:56;17.58;;;7.15;;
7104;SDS011;3594;42.152;24.714;2022-12-07T09:00:23;11.82;;;6.22;;
7104;SDS011;3594;42.152;24.714;2022-12-07T09:02:48;12.43;;;6.10;;
7104;SDS011;3594;42.152;24.714;2022-12-07T09:05:14;15.55;;;6.72;;
7104;SDS011;3594;42.152;24.714;2022-12-07T09:07:40;17.23;;;7.80;;
7104;SDS011;3594;42.152;24.714;2022-12-07T09:10:07;20.70;;;7.35;;
7104;SDS011;3594;42.152;24.714;2022-12-07T09:12:33;15.88;;;7.35;;
7104;SDS011;3594;42.152;24.714;2022-12-07T09:14:58;20.77;;;8.77;;
7104;SDS011;3594;42.152;24.714;2022-12-07T09:17:25;15.05;;;7.13;;
7104;SDS011;3594;42.152;24.714;2022-12-07T09:19:51;18.15;;;8.02;;
7104;SDS011;3594;42.152;24.714;2022-12-07T09:22:16;12.32;;;6.63;;
7104;SDS011;3594;42.152;24.714;2022-12-07T09:24:42;19.23;;;7.50;;
7104;SDS011;3594;42.152;24.714;2022-12-07T09:27:08;16.85;;;8.45;;
7104;SDS011;3594;42.152;24.714;2022-12-07T09:29:33;17.00;;;7.13;;
7104;SDS011;3594;42.152;24.714;2022-12-07T09:31:59;14.38;;;7.57;;
7104;SDS011;3594;42.152;24.714;2022-12-07T09:34:24;13.68;;;6.80;;
7104;SDS011;3594;42.152;24.714;2022-12-07T09:36:51;14.23;;;6.95;;
7104;SDS011;3594;42.152;24.714;2022-12-07T09:39:17;23.92;;;8.10;;
7104;SDS011;3594;42.152;24.714;2022-12-07T09:41:43;24.55;;;8.30;;
7104;SDS011;3594;42.152;24.714;2022-12-07T09:44:10;13.35;;;6.60;;
7104;SDS011;3594;42.152;24.714;2022-12-07T09:46:39;20.17;;;7.65;;
7104;SDS011;3594;42.152;24.714;2022-12-07T09:49:11;18.48;;;7.75;;
7104;SDS011;3594;42.152;24.714;2022-12-07T09:51:39;21.08;;;8.30;;
7104;SDS011;3594;42.152;24.714;2022-12-07T09:54:05;14.10;;;7.70;;
7104;SDS011;3594;42.152;24.714;2022-12-07T09:56:30;20.83;;;8.25;;
7104;SDS011;3594;42.152;24.714;2022-12-07T09:58:58;13.73;;;7.32;;
7104;SDS011;3594;42.152;24.714;2022-12-07T10:01:30;17.10;;;7.53;;
7104;SDS011;3594;42.152;24.714;2022-12-07T10:04:17;16.67;;;8.10;;
7104;SDS011;3594;42.152;24.714;2022-12-07T10:06:44;17.98;;;7.88;;
7104;SDS011;3594;42.152;24.714;2022-12-07T10:09:11;19.33;;;7.78;;
7104;SDS011;3594;42.152;24.714;2022-12-07T10:14:32;21.67;;;8.60;;
7104;SDS011;3594;42.152;24.714;2022-12-07T10:16:59;18.48;;;8.27;;
7104;SDS011;3594;42.152;24.714;2022-12-07T10:22:09;15.52;;;7.88;;
7104;SDS011;3594;42.152;24.714;2022-12-07T10:24:37;12.32;;;6.70;;
7104;SDS011;3594;42.152;24.714;2022-12-07T10:27:17;22.00;;;7.07;;
7104;SDS011;3594;42.152;24.714;2022-12-07T10:29:47;14.32;;;7.03;;
7104;SDS011;3594;42.152;24.714;2022-12-07T10:34:42;14.82;;;6.18;;
7104;SDS011;3594;42.152;24.714;2022-12-07T10:39:49;11.75;;;6.43;;
7104;SDS011;3594;42.152;24.714;2022-12-07T10:42:18;14.63;;;7.75;;
7104;SDS011;3594;42.152;24.714;2022-12-07T10:44:50;16.48;;;6.70;;
7104;SDS011;3594;42.152;24.714;2022-12-07T11:02:06;16.40;;;5.65;;
7104;SDS011;3594;42.152;24.714;2022-12-07T11:05:06;14.90;;;6.53;;
7104;SDS011;3594;42.152;24.714;2022-12-07T11:07:49;15.52;;;5.75;;
7104;SDS011;3594;42.152;24.714;2022-12-07T11:10:23;15.32;;;7.90;;
7104;SDS011;3594;42.152;24.714;2022-12-07T11:22:01;10.38;;;5.28;;
7104;SDS011;3594;42.152;24.714;2022-12-07T11:24:42;14.13;;;6.47;;
7104;SDS011;3594;42.152;24.714;2022-12-07T11:27:23;12.75;;;6.18;;
7104;SDS011;3594;42.152;24.714;2022-12-07T11:35:24;12.95;;;6.68;;
7104;SDS011;3594;42.152;24.714;2022-12-07T11:38:02;12.27;;;5.63;;
7104;SDS011;3594;42.152;24.714;2022-12-07T11:40:36;10.35;;;6.43;;
7104;SDS011;3594;42.152;24.714;2022-12-07T11:45:47;14.63;;;7.75;;
7104;SDS011;3594;42.152;24.714;2022-12-07T11:48:41;14.48;;;5.97;;
7104;SDS011;3594;42.152;24.714;2022-12-07T11:51:12;12.32;;;6.07;;
7104;SDS011;3594;42.152;24.714;2022-12-07T11:53:39;14.93;;;6.57;;
7104;SDS011;3594;42.152;24.714;2022-12-07T11:56:11;13.70;;;6.18;;
7104;SDS011;3594;42.152;24.714;2022-12-07T11:58:44;11.27;;;5.85;;
7104;SDS011;3594;42.152;24.714;2022-12-07T12:03:46;11.73;;;6.18;;
7104;SDS011;3594;42.152;24.714;2022-12-07T12:06:14;11.38;;;5.30;;
7104;SDS011;3594;42.152;24.714;2022-12-07T12:08:41;11.80;;;5.07;;
7104;SDS011;3594;42.152;24.714;2022-12-07T12:14:14;11.60;;;6.57;;
7104;SDS011;3594;42.152;24.714;2022-12-07T12:22:00;11.15;;;5.22;;
7104;SDS011;3594;42.152;24.714;2022-12-07T12:24:35;11.07;;;5.50;;
7104;SDS011;3594;42.152;24.714;2022-12-07T12:27:05;12.85;;;5.45;;
7104;SDS011;3594;42.152;24.714;2022-12-07T12:29:38;12.52;;;5.82;;
7104;SDS011;3594;42.152;24.714;2022-12-07T12:32:07;10.32;;;5.97;;
7104;SDS011;3594;42.152;24.714;2022-12-07T12:34:40;9.23;;;4.07;;
7104;SDS011;3594;42.152;24.714;2022-12-07T12:42:45;10.73;;;5.43;;
7104;SDS011;3594;42.152;24.714;2022-12-07T12:45:24;10.18;;;5.15;;
7104;SDS011;3594;42.152;24.714;2022-12-07T12:47:57;9.65;;;4.88;;
7104;SDS011;3594;42.152;24.714;2022-12-07T12:50:28;12.48;;;5.05;;
7104;SDS011;3594;42.152;24.714;2022-12-07T13:00:43;12.45;;;6.20;;
7104;SDS011;3594;42.152;24.714;2022-12-07T13:03:24;19.55;;;5.43;;
7104;SDS011;3594;42.152;24.714;2022-12-07T13:08:57;10.68;;;4.95;;
7104;SDS011;3594;42.152;24.714;2022-12-07T13:17:00;12.65;;;4.95;;
7104;SDS011;3594;42.152;24.714;2022-12-07T13:22:27;8.23;;;5.05;;
7104;SDS011;3594;42.152;24.714;2022-12-07T13:27:22;12.43;;;5.43;;
7104;SDS011;3594;42.152;24.714;2022-12-07T13:29:49;10.38;;;4.60;;
7104;SDS011;3594;42.152;24.714;2022-12-07T13:32:25;11.93;;;5.00;;
7104;SDS011;3594;42.152;24.714;2022-12-07T13:34:52;8.80;;;4.70;;
7104;SDS011;3594;42.152;24.714;2022-12-07T13:39:56;12.75;;;5.05;;
7104;SDS011;3594;42.152;24.714;2022-12-07T13:44:56;10.85;;;5.03;;
7104;SDS011;3594;42.152;24.714;2022-12-07T13:50:20;8.40;;;4.28;;
7104;SDS011;3594;42.152;24.714;2022-12-07T13:52:49;10.38;;;4.57;;
7104;SDS011;3594;42.152;24.714;2022-12-07T13:55:15;8.82;;;4.47;;
7104;SDS011;3594;42.152;24.714;2022-12-07T13:57:42;11.73;;;4.40;;
7104;SDS011;3594;42.152;24.714;2022-12-07T14:00:16;8.27;;;4.57;;
7104;SDS011;3594;42.152;24.714;2022-12-07T14:05:38;11.10;;;4.63;;
7104;SDS011;3594;42.152;24.714;2022-12-07T14:10:38;10.13;;;5.47;;
7104;SDS011;3594;42.152;24.714;2022-12-07T14:16:00;10.45;;;4.97;;
7104;SDS011;3594;42.152;24.714;2022-12-07T14:18:36;7.05;;;4.13;;
7104;SDS011;3594;42.152;24.714;2022-12-07T14:21:04;6.85;;;4.65;;
7104;SDS011;3594;42.152;24.714;2022-12-07T14:23:31;7.57;;;4.43;;
7104;SDS011;3594;42.152;24.714;2022-12-07T14:26:13;10.10;;;4.20;;
7104;SDS011;3594;42.152;24.714;2022-12-07T14:28:40;7.97;;;4.15;;
7104;SDS011;3594;42.152;24.714;2022-12-07T14:31:17;11.65;;;5.53;;
7104;SDS011;3594;42.152;24.714;2022-12-07T14:33:46;8.15;;;4.93;;
7104;SDS011;3594;42.152;24.714;2022-12-07T14:36:12;9.63;;;5.30;;
7104;SDS011;3594;42.152;24.714;2022-12-07T14:38:38;9.75;;;4.55;;
7104;SDS011;3594;42.152;24.714;2022-12-07T14:41:04;9.25;;;5.50;;
7104;SDS011;3594;42.152;24.714;2022-12-07T14:43:56;11.30;;;4.93;;
7104;SDS011;3594;42.152;24.714;2022-12-07T14:46:21;12.30;;;5.35;;
7104;SDS011;3594;42.152;24.714;2022-12-07T14:48:46;10.77;;;6.20;;
7104;SDS011;3594;42.152;24.714;2022-12-07T14:51:12;12.68;;;4.90;;
7104;SDS011;3594;42.152;24.714;2022-12-07T14:53:39;9.30;;;4.45;;
7104;SDS011;3594;42.152;24.714;2022-12-07T14:56:08;7.28;;;4.68;;
7104;SDS011;3594;42.152;24.714;2022-12-07T14:58:33;10.80;;;5.22;;
7104;SDS011;3594;42.152;24.714;2022-12-07T15:00:59;9.65;;;5.20;;
7104;SDS011;3594;42.152;24.714;2022-12-07T15:03:25;10.15;;;5.32;;
7104;SDS011;3594;42.152;24.714;2022-12-07T15:05:50;9.65;;;4.53;;
7104;SDS011;3594;42.152;24.714;2022-12-07T15:08:16;15.63;;;6.13;;
7104;SDS011;3594;42.152;24.714;2022-12-07T15:10:41;7.43;;;4.82;;
7104;SDS011;3594;42.152;24.714;2022-12-07T15:13:07;7.13;;;4.88;;
7104;SDS011;3594;42.152;24.714;2022-12-07T15:15:52;12.82;;;5.97;;
7104;SDS011;3594;42.152;24.714;2022-12-07T15:18:19;15.18;;;5.28;;
7104;SDS011;3594;42.152;24.714;2022-12-07T15:20:45;12.45;;;6.22;;
7104;SDS011;3594;42.152;24.714;2022-12-07T15:23:11;15.27;;;5.90;;
7104;SDS011;3594;42.152;24.714;2022-12-07T15:25:41;13.00;;;6.35;;
7104;SDS011;3594;42.152;24.714;2022-12-07T15:28:07;16.52;;;6.55;;
7104;SDS011;3594;42.152;24.714;2022-12-07T15:30:32;15.85;;;7.55;;
7104;SDS011;3594;42.152;24.714;2022-12-07T15:32:57;14.55;;;7.43;;
7104;SDS011;3594;42.152;24.714;2022-12-07T15:35:23;12.95;;;5.90;;
7104;SDS011;3594;42.152;24.714;2022-12-07T15:37:48;12.50;;;5.83;;
7104;SDS011;3594;42.152;24.714;2022-12-07T15:40:14;12.57;;;6.33;;
7104;SDS011;3594;42.152;24.714;2022-12-07T15:42:39;13.17;;;6.40;;
7104;SDS011;3594;42.152;24.714;2022-12-07T15:45:06;15.27;;;6.83;;
7104;SDS011;3594;42.152;24.714;2022-12-07T15:47:37;17.80;;;6.83;;
7104;SDS011;3594;42.152;24.714;2022-12-07T15:50:06;17.20;;;8.73;;
7104;SDS011;3594;42.152;24.714;2022-12-07T15:52:33;12.87;;;5.80;;
7104;SDS011;3594;42.152;24.714;2022-12-07T15:54:59;9.47;;;5.57;;
7104;SDS011;3594;42.152;24.714;2022-12-07T15:57:25;15.27;;;6.97;;
7104;SDS011;3594;42.152;24.714;2022-12-07T15:59:51;16.87;;;6.80;;
7104;SDS011;3594;42.152;24.714;2022-12-07T16:02:17;13.10;;;5.63;;
7104;SDS011;3594;42.152;24.714;2022-12-07T16:04:42;10.97;;;6.03;;
7104;SDS011;3594;42.152;24.714;2022-12-07T16:07:08;8.47;;;5.60;;
7104;SDS011;3594;42.152;24.714;2022-12-07T16:09:33;14.30;;;5.83;;
7104;SDS011;3594;42.152;24.714;2022-12-07T16:11:59;11.90;;;5.40;;
7104;SDS011;3594;42.152;24.714;2022-12-07T16:14:24;16.53;;;6.57;;
7104;SDS011;3594;42.152;24.714;2022-12-07T16:16:50;13.70;;;5.93;;
7104;SDS011;3594;42.152;24.714;2022-12-07T16:19:15;10.73;;;5.33;;
7104;SDS011;3594;42.152;24.714;2022-12-07T16:21:41;14.13;;;6.37;;
7104;SDS011;3594;42.152;24.714;2022-12-07T16:24:07;11.93;;;4.93;;
7104;SDS011;3594;42.152;24.714;2022-12-07T16:26:33;8.30;;;4.87;;
7104;SDS011;3594;42.152;24.714;2022-12-07T16:28:59;13.77;;;5.77;;
7104;SDS011;3594;42.152;24.714;2022-12-07T16:31:25;13.00;;;6.43;;
7104;SDS011;3594;42.152;24.714;2022-12-07T16:33:56;14.50;;;5.57;;
7104;SDS011;3594;42.152;24.714;2022-12-07T16:36:22;10.07;;;5.90;;
7104;SDS011;3594;42.152;24.714;2022-12-07T16:38:50;11.13;;;4.97;;
7104;SDS011;3594;42.152;24.714;2022-12-07T16:41:15;13.57;;;5.87;;
7104;SDS011;3594;42.152;24.714;2022-12-07T16:43:41;18.40;;;6.47;;
7104;SDS011;3594;42.152;24.714;2022-12-07T16:46:07;15.07;;;6.90;;
7104;SDS011;3594;42.152;24.714;2022-12-07T16:48:36;10.73;;;5.87;;
7104;SDS011;3594;42.152;24.714;2022-12-07T16:51:03;14.47;;;5.23;;
7104;SDS011;3594;42.152;24.714;2022-12-07T16:53:34;15.37;;;5.53;;
7104;SDS011;3594;42.152;24.714;2022-12-07T16:56:00;13.50;;;6.07;;
7104;SDS011;3594;42.152;24.714;2022-12-07T16:58:25;13.77;;;6.40;;
7104;SDS011;3594;42.152;24.714;2022-12-07T17:00:51;12.40;;;5.77;;
7104;SDS011;3594;42.152;24.714;2022-12-07T17:03:16;24.07;;;6.10;;
7104;SDS011;3594;42.152;24.714;2022-12-07T17:05:42;10.70;;;4.97;;
7104;SDS011;3594;42.152;24.714;2022-12-07T17:08:09;13.37;;;6.40;;
7104;SDS011;3594;42.152;24.714;2022-12-07T17:10:37;13.17;;;6.30;;
7104;SDS011;3594;42.152;24.714;2022-12-07T17:13:04;11.57;;;6.07;;
7104;SDS011;3594;42.152;24.714;2022-12-07T17:18:23;13.97;;;5.93;;
7104;SDS011;3594;42.152;24.714;2022-12-07T17:20:48;11.23;;;6.13;;